sensor_id;sensor_type;location;lat;lon;timestamp;temperature;humidity
44509;DHT22;30214;52.246;14.408;2023-05-07T00:01:51;8.10;99.90
44509;DHT22;30214;52.246;14.408;2023-05-07T00:04:19;8.10;99.90
44509;DHT22;30214;52.246;14.408;2023-05-07T00:06:46;8.10;99.90
44509;DHT22;30214;52.246;14.408;2023-05-07T00:09:13;8.20;99.90
44509;DHT22;30214;52.246;14.408;2023-05-07T00:11:43;8.10;99.90
44509;DHT22;30214;52.246;14.408;2023-05-07T00:14:15;8.10;99.90
44509;DHT22;30214;52.246;14.408;2023-05-07T00:16:42;8.10;99.90
44509;DHT22;30214;52.246;14.408;2023-05-07T00:19:09;8.10;99.90
44509;DHT22;30214;52.246;14.408;2023-05-07T00:21:36;8.10;99.90
44509;DHT22;30214;52.246;14.408;2023-05-07T00:24:04;8.20;99.90
44509;DHT22;30214;52.246;14.408;2023-05-07T00:26:31;8.10;99.90
44509;DHT22;30214;52.246;14.408;2023-05-07T00:28:58;8.00;99.90
44509;DHT22;30214;52.246;14.408;2023-05-07T00:31:27;8.00;99.90
44509;DHT22;30214;52.246;14.408;2023-05-07T00:33:54;8.00;99.90
44509;DHT22;30214;52.246;14.408;2023-05-07T00:36:21;8.00;99.90
44509;DHT22;30214;52.246;14.408;2023-05-07T00:38:48;8.00;99.90
44509;DHT22;30214;52.246;14.408;2023-05-07T00:41:15;8.10;99.90
44509;DHT22;30214;52.246;14.408;2023-05-07T00:43:43;8.10;99.90
44509;DHT22;30214;52.246;14.408;2023-05-07T00:46:10;8.10;99.90
44509;DHT22;30214;52.246;14.408;2023-05-07T00:48:39;8.00;99.90
44509;DHT22;30214;52.246;14.408;2023-05-07T00:51:06;8.00;99.90
44509;DHT22;30214;52.246;14.408;2023-05-07T00:53:34;8.00;99.90
44509;DHT22;30214;52.246;14.408;2023-05-07T00:56:01;8.00;99.90
44509;DHT22;30214;52.246;14.408;2023-05-07T00:58:28;8.00;99.90
44509;DHT22;30214;52.246;14.408;2023-05-07T01:00:56;8.00;99.90
44509;DHT22;30214;52.246;14.408;2023-05-07T01:03:23;8.00;99.90
44509;DHT22;30214;52.246;14.408;2023-05-07T01:05:53;8.00;99.90
44509;DHT22;30214;52.246;14.408;2023-05-07T01:08:22;8.10;99.90
44509;DHT22;30214;52.246;14.408;2023-05-07T01:10:52;8.00;99.90
44509;DHT22;30214;52.246;14.408;2023-05-07T01:13:20;8.00;99.90
44509;DHT22;30214;52.246;14.408;2023-05-07T01:15:47;8.00;99.90
44509;DHT22;30214;52.246;14.408;2023-05-07T01:18:15;8.00;99.90
44509;DHT22;30214;52.246;14.408;2023-05-07T01:20:42;8.10;99.90
44509;DHT22;30214;52.246;14.408;2023-05-07T01:23:11;8.10;99.90
44509;DHT22;30214;52.246;14.408;2023-05-07T01:25:38;8.00;99.90
44509;DHT22;30214;52.246;14.408;2023-05-07T01:28:06;7.90;99.90
44509;DHT22;30214;52.246;14.408;2023-05-07T01:30:36;7.90;99.90
44509;DHT22;30214;52.246;14.408;2023-05-07T01:33:09;7.90;99.90
44509;DHT22;30214;52.246;14.408;2023-05-07T01:35:45;7.90;99.90
44509;DHT22;30214;52.246;14.408;2023-05-07T01:38:16;8.00;99.90
44509;DHT22;30214;52.246;14.408;2023-05-07T01:40:43;7.90;99.90
44509;DHT22;30214;52.246;14.408;2023-05-07T01:43:11;7.90;99.90
44509;DHT22;30214;52.246;14.408;2023-05-07T01:45:39;7.90;99.90
44509;DHT22;30214;52.246;14.408;2023-05-07T01:48:07;8.00;99.90
44509;DHT22;30214;52.246;14.408;2023-05-07T01:50:37;8.00;99.90
44509;DHT22;30214;52.246;14.408;2023-05-07T01:53:04;8.00;99.90
44509;DHT22;30214;52.246;14.408;2023-05-07T01:55:32;8.00;99.90
44509;DHT22;30214;52.246;14.408;2023-05-07T01:57:59;8.00;99.90
44509;DHT22;30214;52.246;14.408;2023-05-07T02:00:27;7.90;99.90
44509;DHT22;30214;52.246;14.408;2023-05-07T02:02:54;7.90;99.90
44509;DHT22;30214;52.246;14.408;2023-05-07T02:05:48;8.00;99.90
44509;DHT22;30214;52.246;14.408;2023-05-07T02:08:33;8.00;99.90
44509;DHT22;30214;52.246;14.408;2023-05-07T02:11:03;8.00;99.90
44509;DHT22;30214;52.246;14.408;2023-05-07T02:13:32;8.00;99.90
44509;DHT22;30214;52.246;14.408;2023-05-07T02:16:00;7.90;99.90
44509;DHT22;30214;52.246;14.408;2023-05-07T02:18:28;7.90;99.90
44509;DHT22;30214;52.246;14.408;2023-05-07T02:20:55;7.90;99.90
44509;DHT22;30214;52.246;14.408;2023-05-07T02:23:22;8.00;99.90
44509;DHT22;30214;52.246;14.408;2023-05-07T02:25:49;7.90;99.90
44509;DHT22;30214;52.246;14.408;2023-05-07T02:28:18;7.90;99.90
44509;DHT22;30214;52.246;14.408;2023-05-07T02:30:52;7.90;99.90
44509;DHT22;30214;52.246;14.408;2023-05-07T02:33:20;7.80;99.90
44509;DHT22;30214;52.246;14.408;2023-05-07T02:35:48;7.80;99.90
44509;DHT22;30214;52.246;14.408;2023-05-07T02:38:15;7.80;99.90
44509;DHT22;30214;52.246;14.408;2023-05-07T02:40:43;7.80;99.90
44509;DHT22;30214;52.246;14.408;2023-05-07T02:43:10;7.70;99.90
44509;DHT22;30214;52.246;14.408;2023-05-07T02:45:42;7.70;99.90
44509;DHT22;30214;52.246;14.408;2023-05-07T02:48:10;7.80;99.90
44509;DHT22;30214;52.246;14.408;2023-05-07T02:50:37;7.80;99.90
44509;DHT22;30214;52.246;14.408;2023-05-07T02:53:04;7.70;99.90
44509;DHT22;30214;52.246;14.408;2023-05-07T02:55:31;7.80;99.90
44509;DHT22;30214;52.246;14.408;2023-05-07T02:57:58;7.80;99.90
44509;DHT22;30214;52.246;14.408;2023-05-07T03:00:25;7.80;99.90
44509;DHT22;30214;52.246;14.408;2023-05-07T03:03:17;7.80;99.90
44509;DHT22;30214;52.246;14.408;2023-05-07T03:05:44;7.80;99.90
44509;DHT22;30214;52.246;14.408;2023-05-07T03:08:11;7.70;99.90
44509;DHT22;30214;52.246;14.408;2023-05-07T03:10:38;7.70;99.90
44509;DHT22;30214;52.246;14.408;2023-05-07T03:13:05;7.60;99.90
44509;DHT22;30214;52.246;14.408;2023-05-07T03:15:32;7.70;99.90
44509;DHT22;30214;52.246;14.408;2023-05-07T03:17:59;7.80;99.90
44509;DHT22;30214;52.246;14.408;2023-05-07T03:20:28;7.70;99.90
44509;DHT22;30214;52.246;14.408;2023-05-07T03:22:56;7.70;99.90
44509;DHT22;30214;52.246;14.408;2023-05-07T03:25:23;7.70;99.90
44509;DHT22;30214;52.246;14.408;2023-05-07T03:27:50;7.70;99.90
44509;DHT22;30214;52.246;14.408;2023-05-07T03:30:21;7.60;99.90
44509;DHT22;30214;52.246;14.408;2023-05-07T03:32:48;7.60;99.90
44509;DHT22;30214;52.246;14.408;2023-05-07T03:35:16;7.60;99.90
44509;DHT22;30214;52.246;14.408;2023-05-07T03:37:44;7.60;99.90
44509;DHT22;30214;52.246;14.408;2023-05-07T03:40:12;7.60;99.90
44509;DHT22;30214;52.246;14.408;2023-05-07T03:42:48;7.50;99.90
44509;DHT22;30214;52.246;14.408;2023-05-07T03:45:18;7.60;99.90
44509;DHT22;30214;52.246;14.408;2023-05-07T03:47:51;7.60;99.90
44509;DHT22;30214;52.246;14.408;2023-05-07T03:50:20;7.60;99.90
44509;DHT22;30214;52.246;14.408;2023-05-07T03:52:48;7.60;99.90
44509;DHT22;30214;52.246;14.408;2023-05-07T03:55:18;7.60;99.90
44509;DHT22;30214;52.246;14.408;2023-05-07T03:57:50;7.60;99.90
44509;DHT22;30214;52.246;14.408;2023-05-07T04:00:19;7.60;99.90
44509;DHT22;30214;52.246;14.408;2023-05-07T04:02:47;7.50;99.90
44509;DHT22;30214;52.246;14.408;2023-05-07T04:05:18;7.50;99.90
44509;DHT22;30214;52.246;14.408;2023-05-07T04:07:49;7.60;99.90
44509;DHT22;30214;52.246;14.408;2023-05-07T04:10:20;7.60;99.90
44509;DHT22;30214;52.246;14.408;2023-05-07T04:12:49;7.60;99.90
44509;DHT22;30214;52.246;14.408;2023-05-07T04:15:20;7.60;99.90
44509;DHT22;30214;52.246;14.408;2023-05-07T04:17:47;7.60;99.90
44509;DHT22;30214;52.246;14.408;2023-05-07T04:20:17;7.60;99.90
44509;DHT22;30214;52.246;14.408;2023-05-07T04:22:50;7.60;99.90
44509;DHT22;30214;52.246;14.408;2023-05-07T04:25:17;7.60;99.90
44509;DHT22;30214;52.246;14.408;2023-05-07T04:27:44;7.60;99.90
44509;DHT22;30214;52.246;14.408;2023-05-07T04:30:13;7.60;99.90
44509;DHT22;30214;52.246;14.408;2023-05-07T04:32:40;7.60;99.90
44509;DHT22;30214;52.246;14.408;2023-05-07T04:35:08;7.60;99.90
44509;DHT22;30214;52.246;14.408;2023-05-07T04:37:36;7.70;99.90
44509;DHT22;30214;52.246;14.408;2023-05-07T04:40:06;7.60;99.90
44509;DHT22;30214;52.246;14.408;2023-05-07T04:42:34;7.70;99.90
44509;DHT22;30214;52.246;14.408;2023-05-07T04:45:02;7.60;99.90
44509;DHT22;30214;52.246;14.408;2023-05-07T04:47:32;7.70;99.90
44509;DHT22;30214;52.246;14.408;2023-05-07T04:50:01;7.80;99.90
44509;DHT22;30214;52.246;14.408;2023-05-07T04:52:31;7.80;99.90
44509;DHT22;30214;52.246;14.408;2023-05-07T04:55:02;7.80;99.90
44509;DHT22;30214;52.246;14.408;2023-05-07T04:57:36;7.90;99.90
44509;DHT22;30214;52.246;14.408;2023-05-07T05:00:05;7.90;99.90
44509;DHT22;30214;52.246;14.408;2023-05-07T05:02:35;7.90;99.90
44509;DHT22;30214;52.246;14.408;2023-05-07T05:05:03;8.00;99.90
44509;DHT22;30214;52.246;14.408;2023-05-07T05:07:30;8.00;99.90
44509;DHT22;30214;52.246;14.408;2023-05-07T05:09:58;8.00;99.90
44509;DHT22;30214;52.246;14.408;2023-05-07T05:12:25;8.20;99.90
44509;DHT22;30214;52.246;14.408;2023-05-07T05:14:54;8.20;99.90
44509;DHT22;30214;52.246;14.408;2023-05-07T05:17:21;8.40;99.90
44509;DHT22;30214;52.246;14.408;2023-05-07T05:19:48;8.60;99.90
44509;DHT22;30214;52.246;14.408;2023-05-07T05:22:15;8.80;99.90
44509;DHT22;30214;52.246;14.408;2023-05-07T05:24:43;8.70;99.90
44509;DHT22;30214;52.246;14.408;2023-05-07T05:27:10;8.50;99.90
44509;DHT22;30214;52.246;14.408;2023-05-07T05:29:37;8.40;99.90
44509;DHT22;30214;52.246;14.408;2023-05-07T05:32:05;8.40;99.90
44509;DHT22;30214;52.246;14.408;2023-05-07T05:34:32;8.40;99.90
44509;DHT22;30214;52.246;14.408;2023-05-07T05:37:00;8.50;99.90
44509;DHT22;30214;52.246;14.408;2023-05-07T05:39:27;8.60;99.90
44509;DHT22;30214;52.246;14.408;2023-05-07T05:41:55;8.60;99.90
44509;DHT22;30214;52.246;14.408;2023-05-07T05:44:22;8.80;99.90
44509;DHT22;30214;52.246;14.408;2023-05-07T05:46:49;8.80;99.90
44509;DHT22;30214;52.246;14.408;2023-05-07T05:49:17;8.80;99.90
44509;DHT22;30214;52.246;14.408;2023-05-07T05:51:44;8.70;99.90
44509;DHT22;30214;52.246;14.408;2023-05-07T05:54:12;8.60;99.90
44509;DHT22;30214;52.246;14.408;2023-05-07T05:56:39;8.50;99.90
44509;DHT22;30214;52.246;14.408;2023-05-07T05:59:07;8.60;99.90
44509;DHT22;30214;52.246;14.408;2023-05-07T06:01:34;8.60;99.90
44509;DHT22;30214;52.246;14.408;2023-05-07T06:04:03;8.80;99.90
44509;DHT22;30214;52.246;14.408;2023-05-07T06:06:32;9.00;99.90
44509;DHT22;30214;52.246;14.408;2023-05-07T06:09:00;9.20;99.90
44509;DHT22;30214;52.246;14.408;2023-05-07T06:11:34;9.20;99.90
44509;DHT22;30214;52.246;14.408;2023-05-07T06:14:01;9.20;99.90
44509;DHT22;30214;52.246;14.408;2023-05-07T06:16:30;9.10;99.90
44509;DHT22;30214;52.246;14.408;2023-05-07T06:18:57;9.00;99.90
44509;DHT22;30214;52.246;14.408;2023-05-07T06:21:24;9.00;99.90
44509;DHT22;30214;52.246;14.408;2023-05-07T06:23:53;9.00;99.90
44509;DHT22;30214;52.246;14.408;2023-05-07T06:26:20;9.00;99.90
44509;DHT22;30214;52.246;14.408;2023-05-07T06:28:47;9.00;99.90
44509;DHT22;30214;52.246;14.408;2023-05-07T06:31:18;8.90;99.90
44509;DHT22;30214;52.246;14.408;2023-05-07T06:33:52;9.00;99.90
44509;DHT22;30214;52.246;14.408;2023-05-07T06:36:21;9.00;99.90
44509;DHT22;30214;52.246;14.408;2023-05-07T06:38:48;9.00;99.90
44509;DHT22;30214;52.246;14.408;2023-05-07T06:41:16;9.00;99.90
44509;DHT22;30214;52.246;14.408;2023-05-07T06:43:43;9.10;99.90
44509;DHT22;30214;52.246;14.408;2023-05-07T06:46:29;9.10;99.90
44509;DHT22;30214;52.246;14.408;2023-05-07T06:48:57;9.20;99.90
44509;DHT22;30214;52.246;14.408;2023-05-07T06:51:25;9.30;99.90
44509;DHT22;30214;52.246;14.408;2023-05-07T06:53:53;9.20;99.90
44509;DHT22;30214;52.246;14.408;2023-05-07T06:56:22;9.30;99.90
44509;DHT22;30214;52.246;14.408;2023-05-07T06:58:50;9.20;99.90
44509;DHT22;30214;52.246;14.408;2023-05-07T07:01:18;9.10;99.90
44509;DHT22;30214;52.246;14.408;2023-05-07T07:03:45;9.10;99.90
44509;DHT22;30214;52.246;14.408;2023-05-07T07:06:13;9.10;99.90
44509;DHT22;30214;52.246;14.408;2023-05-07T07:08:40;9.10;99.90
44509;DHT22;30214;52.246;14.408;2023-05-07T07:11:09;9.20;99.90
44509;DHT22;30214;52.246;14.408;2023-05-07T07:13:38;9.20;99.90
44509;DHT22;30214;52.246;14.408;2023-05-07T07:16:06;9.30;99.90
44509;DHT22;30214;52.246;14.408;2023-05-07T07:18:33;9.60;99.90
44509;DHT22;30214;52.246;14.408;2023-05-07T07:21:01;9.80;99.90
44509;DHT22;30214;52.246;14.408;2023-05-07T07:23:29;9.90;99.90
44509;DHT22;30214;52.246;14.408;2023-05-07T07:25:57;9.90;99.90
44509;DHT22;30214;52.246;14.408;2023-05-07T07:28:24;10.00;99.90
44509;DHT22;30214;52.246;14.408;2023-05-07T07:30:53;9.90;99.90
44509;DHT22;30214;52.246;14.408;2023-05-07T07:33:21;9.60;99.90
44509;DHT22;30214;52.246;14.408;2023-05-07T07:35:48;9.60;99.90
44509;DHT22;30214;52.246;14.408;2023-05-07T07:38:15;9.60;99.90
44509;DHT22;30214;52.246;14.408;2023-05-07T07:40:43;9.70;99.90
44509;DHT22;30214;52.246;14.408;2023-05-07T07:43:12;9.80;99.90
44509;DHT22;30214;52.246;14.408;2023-05-07T07:45:40;9.80;99.90
44509;DHT22;30214;52.246;14.408;2023-05-07T07:48:09;9.90;99.90
44509;DHT22;30214;52.246;14.408;2023-05-07T07:50:38;9.90;99.90
44509;DHT22;30214;52.246;14.408;2023-05-07T07:53:06;10.30;99.90
44509;DHT22;30214;52.246;14.408;2023-05-07T07:55:38;10.50;99.90
44509;DHT22;30214;52.246;14.408;2023-05-07T07:58:06;10.80;99.90
44509;DHT22;30214;52.246;14.408;2023-05-07T08:00:34;10.80;99.90
44509;DHT22;30214;52.246;14.408;2023-05-07T08:03:01;10.70;99.90
44509;DHT22;30214;52.246;14.408;2023-05-07T08:05:34;10.70;99.90
44509;DHT22;30214;52.246;14.408;2023-05-07T08:08:04;10.50;99.90
44509;DHT22;30214;52.246;14.408;2023-05-07T08:10:34;10.30;99.90
44509;DHT22;30214;52.246;14.408;2023-05-07T08:13:10;10.20;99.90
44509;DHT22;30214;52.246;14.408;2023-05-07T08:15:42;10.40;99.90
44509;DHT22;30214;52.246;14.408;2023-05-07T08:18:10;10.70;99.90
44509;DHT22;30214;52.246;14.408;2023-05-07T08:20:40;10.80;99.90
44509;DHT22;30214;52.246;14.408;2023-05-07T08:23:13;10.90;99.90
44509;DHT22;30214;52.246;14.408;2023-05-07T08:25:41;11.10;99.90
44509;DHT22;30214;52.246;14.408;2023-05-07T08:28:09;11.40;99.90
44509;DHT22;30214;52.246;14.408;2023-05-07T08:30:38;11.80;99.90
44509;DHT22;30214;52.246;14.408;2023-05-07T08:33:05;12.00;99.90
44509;DHT22;30214;52.246;14.408;2023-05-07T08:35:32;12.10;99.90
44509;DHT22;30214;52.246;14.408;2023-05-07T08:38:01;11.80;99.90
44509;DHT22;30214;52.246;14.408;2023-05-07T08:40:29;11.50;99.90
44509;DHT22;30214;52.246;14.408;2023-05-07T08:43:00;11.40;99.90
44509;DHT22;30214;52.246;14.408;2023-05-07T08:45:30;11.30;99.90
44509;DHT22;30214;52.246;14.408;2023-05-07T08:48:02;11.20;99.90
44509;DHT22;30214;52.246;14.408;2023-05-07T08:50:36;11.10;99.90
44509;DHT22;30214;52.246;14.408;2023-05-07T08:53:06;11.30;99.90
44509;DHT22;30214;52.246;14.408;2023-05-07T08:55:34;11.40;99.90
44509;DHT22;30214;52.246;14.408;2023-05-07T08:58:04;12.10;99.90
44509;DHT22;30214;52.246;14.408;2023-05-07T09:00:36;12.10;99.90
44509;DHT22;30214;52.246;14.408;2023-05-07T09:03:05;12.20;99.90
44509;DHT22;30214;52.246;14.408;2023-05-07T09:05:33;12.00;99.90
44509;DHT22;30214;52.246;14.408;2023-05-07T09:08:04;12.00;99.90
44509;DHT22;30214;52.246;14.408;2023-05-07T09:10:37;12.10;99.90
44509;DHT22;30214;52.246;14.408;2023-05-07T09:13:06;12.40;99.90
44509;DHT22;30214;52.246;14.408;2023-05-07T09:15:34;12.40;99.90
44509;DHT22;30214;52.246;14.408;2023-05-07T09:18:03;12.30;99.90
44509;DHT22;30214;52.246;14.408;2023-05-07T09:20:33;12.30;99.90
44509;DHT22;30214;52.246;14.408;2023-05-07T09:23:07;12.40;99.90
44509;DHT22;30214;52.246;14.408;2023-05-07T09:25:36;12.30;99.90
44509;DHT22;30214;52.246;14.408;2023-05-07T09:28:12;12.60;99.90
44509;DHT22;30214;52.246;14.408;2023-05-07T09:30:40;12.50;99.90
44509;DHT22;30214;52.246;14.408;2023-05-07T09:33:11;12.50;99.90
44509;DHT22;30214;52.246;14.408;2023-05-07T09:35:43;12.80;99.90
44509;DHT22;30214;52.246;14.408;2023-05-07T09:38:19;13.20;99.90
44509;DHT22;30214;52.246;14.408;2023-05-07T09:41:01;12.90;99.90
44509;DHT22;30214;52.246;14.408;2023-05-07T09:43:34;13.20;99.90
44509;DHT22;30214;52.246;14.408;2023-05-07T09:46:07;13.50;99.90
44509;DHT22;30214;52.246;14.408;2023-05-07T09:48:38;13.10;99.90
44509;DHT22;30214;52.246;14.408;2023-05-07T09:51:17;13.10;99.90
44509;DHT22;30214;52.246;14.408;2023-05-07T09:53:54;12.90;99.90
44509;DHT22;30214;52.246;14.408;2023-05-07T09:56:24;12.70;99.90
44509;DHT22;30214;52.246;14.408;2023-05-07T09:58:54;12.80;99.90
44509;DHT22;30214;52.246;14.408;2023-05-07T10:01:25;12.80;99.90
44509;DHT22;30214;52.246;14.408;2023-05-07T10:03:53;12.50;99.90
44509;DHT22;30214;52.246;14.408;2023-05-07T10:06:23;12.30;99.90
44509;DHT22;30214;52.246;14.408;2023-05-07T10:08:53;12.30;99.90
44509;DHT22;30214;52.246;14.408;2023-05-07T10:11:23;12.30;99.90
44509;DHT22;30214;52.246;14.408;2023-05-07T10:13:52;12.30;99.90
44509;DHT22;30214;52.246;14.408;2023-05-07T10:16:21;12.40;99.90
44509;DHT22;30214;52.246;14.408;2023-05-07T10:18:50;12.40;99.90
44509;DHT22;30214;52.246;14.408;2023-05-07T10:21:23;12.80;99.90
44509;DHT22;30214;52.246;14.408;2023-05-07T10:23:58;13.60;99.90
44509;DHT22;30214;52.246;14.408;2023-05-07T10:26:30;13.90;99.90
44509;DHT22;30214;52.246;14.408;2023-05-07T10:29:03;14.20;99.90
44509;DHT22;30214;52.246;14.408;2023-05-07T10:31:53;14.00;99.90
44509;DHT22;30214;52.246;14.408;2023-05-07T10:34:26;14.10;99.90
44509;DHT22;30214;52.246;14.408;2023-05-07T10:36:57;14.40;99.90
44509;DHT22;30214;52.246;14.408;2023-05-07T10:39:25;14.60;98.60
44509;DHT22;30214;52.246;14.408;2023-05-07T10:41:54;14.70;98.40
44509;DHT22;30214;52.246;14.408;2023-05-07T10:44:25;15.00;99.40
44509;DHT22;30214;52.246;14.408;2023-05-07T10:47:05;15.30;98.30
44509;DHT22;30214;52.246;14.408;2023-05-07T10:49:36;15.30;97.60
44509;DHT22;30214;52.246;14.408;2023-05-07T10:52:17;15.60;98.50
44509;DHT22;30214;52.246;14.408;2023-05-07T10:58:26;15.00;97.90
44509;DHT22;30214;52.246;14.408;2023-05-07T11:01:02;14.90;96.80
44509;DHT22;30214;52.246;14.408;2023-05-07T11:04:12;14.60;97.70
44509;DHT22;30214;52.246;14.408;2023-05-07T11:10:12;15.30;96.80
44509;DHT22;30214;52.246;14.408;2023-05-07T11:12:52;15.60;98.30
44509;DHT22;30214;52.246;14.408;2023-05-07T11:15:36;15.90;99.70
44509;DHT22;30214;52.246;14.408;2023-05-07T11:18:13;16.10;95.20
44509;DHT22;30214;52.246;14.408;2023-05-07T11:20:49;15.70;95.60
44509;DHT22;30214;52.246;14.408;2023-05-07T11:23:59;15.10;95.80
44509;DHT22;30214;52.246;14.408;2023-05-07T11:26:47;15.10;97.80
44509;DHT22;30214;52.246;14.408;2023-05-07T11:29:17;14.70;97.20
44509;DHT22;30214;52.246;14.408;2023-05-07T11:31:51;14.30;97.60
44509;DHT22;30214;52.246;14.408;2023-05-07T11:34:23;14.20;98.60
44509;DHT22;30214;52.246;14.408;2023-05-07T11:36:59;14.30;98.40
44509;DHT22;30214;52.246;14.408;2023-05-07T11:39:41;14.20;98.00
44509;DHT22;30214;52.246;14.408;2023-05-07T11:42:27;14.10;99.10
44509;DHT22;30214;52.246;14.408;2023-05-07T11:44:57;14.10;99.90
44509;DHT22;30214;52.246;14.408;2023-05-07T11:47:24;13.70;99.70
44509;DHT22;30214;52.246;14.408;2023-05-07T11:49:53;13.50;99.60
44509;DHT22;30214;52.246;14.408;2023-05-07T11:52:24;13.60;99.90
44509;DHT22;30214;52.246;14.408;2023-05-07T11:55:03;13.70;99.90
44509;DHT22;30214;52.246;14.408;2023-05-07T11:57:33;13.70;99.90
44509;DHT22;30214;52.246;14.408;2023-05-07T12:00:07;13.60;99.90
44509;DHT22;30214;52.246;14.408;2023-05-07T12:02:40;13.60;99.90
44509;DHT22;30214;52.246;14.408;2023-05-07T12:05:08;13.60;99.90
44509;DHT22;30214;52.246;14.408;2023-05-07T12:07:36;13.50;99.90
44509;DHT22;30214;52.246;14.408;2023-05-07T12:10:07;13.70;99.90
44509;DHT22;30214;52.246;14.408;2023-05-07T12:12:38;13.60;99.90
44509;DHT22;30214;52.246;14.408;2023-05-07T12:15:10;13.60;99.90
44509;DHT22;30214;52.246;14.408;2023-05-07T12:17:38;13.60;99.90
44509;DHT22;30214;52.246;14.408;2023-05-07T12:20:07;13.50;99.90
44509;DHT22;30214;52.246;14.408;2023-05-07T12:22:37;13.60;99.90
44509;DHT22;30214;52.246;14.408;2023-05-07T12:25:07;13.80;99.90
44509;DHT22;30214;52.246;14.408;2023-05-07T12:27:42;13.80;99.90
44509;DHT22;30214;52.246;14.408;2023-05-07T12:30:13;13.80;99.90
44509;DHT22;30214;52.246;14.408;2023-05-07T12:32:41;13.90;99.90
44509;DHT22;30214;52.246;14.408;2023-05-07T12:35:09;13.90;99.90
44509;DHT22;30214;52.246;14.408;2023-05-07T12:37:38;14.20;99.90
44509;DHT22;30214;52.246;14.408;2023-05-07T12:40:10;14.50;98.90
44509;DHT22;30214;52.246;14.408;2023-05-07T12:42:40;14.70;99.90
44509;DHT22;30214;52.246;14.408;2023-05-07T12:45:09;15.10;99.10
44509;DHT22;30214;52.246;14.408;2023-05-07T12:47:43;15.30;96.60
44509;DHT22;30214;52.246;14.408;2023-05-07T12:50:11;15.10;97.60
44509;DHT22;30214;52.246;14.408;2023-05-07T12:52:38;15.20;96.70
44509;DHT22;30214;52.246;14.408;2023-05-07T12:55:07;15.30;97.20
44509;DHT22;30214;52.246;14.408;2023-05-07T12:57:38;15.50;95.20
44509;DHT22;30214;52.246;14.408;2023-05-07T13:00:08;15.70;95.30
44509;DHT22;30214;52.246;14.408;2023-05-07T13:02:42;15.40;93.80
44509;DHT22;30214;52.246;14.408;2023-05-07T13:05:11;15.10;96.40
44509;DHT22;30214;52.246;14.408;2023-05-07T13:07:39;15.10;96.70
44509;DHT22;30214;52.246;14.408;2023-05-07T13:10:08;15.10;95.20
44509;DHT22;30214;52.246;14.408;2023-05-07T13:12:37;15.20;96.20
44509;DHT22;30214;52.246;14.408;2023-05-07T13:15:06;15.30;96.60
44509;DHT22;30214;52.246;14.408;2023-05-07T13:17:35;15.20;94.80
44509;DHT22;30214;52.246;14.408;2023-05-07T13:20:09;14.80;95.60
44509;DHT22;30214;52.246;14.408;2023-05-07T13:22:40;14.80;96.50
44509;DHT22;30214;52.246;14.408;2023-05-07T13:25:11;14.90;96.20
44509;DHT22;30214;52.246;14.408;2023-05-07T13:27:39;15.00;95.20
44509;DHT22;30214;52.246;14.408;2023-05-07T13:30:07;15.00;96.70
44509;DHT22;30214;52.246;14.408;2023-05-07T13:32:36;15.20;97.00
44509;DHT22;30214;52.246;14.408;2023-05-07T13:35:09;15.30;95.90
44509;DHT22;30214;52.246;14.408;2023-05-07T13:37:37;15.50;95.60
44509;DHT22;30214;52.246;14.408;2023-05-07T13:40:05;15.70;96.80
44509;DHT22;30214;52.246;14.408;2023-05-07T13:42:33;15.60;93.80
44509;DHT22;30214;52.246;14.408;2023-05-07T13:45:00;15.50;95.70
44509;DHT22;30214;52.246;14.408;2023-05-07T13:47:28;15.40;95.00
44509;DHT22;30214;52.246;14.408;2023-05-07T13:49:56;15.20;95.70
44509;DHT22;30214;52.246;14.408;2023-05-07T13:52:24;14.80;96.10
44509;DHT22;30214;52.246;14.408;2023-05-07T13:54:51;14.50;98.70
44509;DHT22;30214;52.246;14.408;2023-05-07T13:57:20;14.40;96.70
44509;DHT22;30214;52.246;14.408;2023-05-07T13:59:48;14.20;96.70
44509;DHT22;30214;52.246;14.408;2023-05-07T14:02:15;14.00;97.80
44509;DHT22;30214;52.246;14.408;2023-05-07T14:04:43;13.90;96.90
44509;DHT22;30214;52.246;14.408;2023-05-07T14:07:11;14.00;98.30
44509;DHT22;30214;52.246;14.408;2023-05-07T14:09:40;13.80;97.30
44509;DHT22;30214;52.246;14.408;2023-05-07T14:12:07;13.70;98.80
44509;DHT22;30214;52.246;14.408;2023-05-07T14:14:35;14.10;98.50
44509;DHT22;30214;52.246;14.408;2023-05-07T14:17:04;14.50;96.60
44509;DHT22;30214;52.246;14.408;2023-05-07T14:19:31;14.60;94.60
44509;DHT22;30214;52.246;14.408;2023-05-07T14:21:58;14.70;96.70
44509;DHT22;30214;52.246;14.408;2023-05-07T14:24:26;14.70;96.10
44509;DHT22;30214;52.246;14.408;2023-05-07T14:26:54;14.60;95.70
44509;DHT22;30214;52.246;14.408;2023-05-07T14:29:21;14.30;95.70
44509;DHT22;30214;52.246;14.408;2023-05-07T14:31:48;14.30;98.80
44509;DHT22;30214;52.246;14.408;2023-05-07T14:34:16;14.50;97.10
44509;DHT22;30214;52.246;14.408;2023-05-07T14:36:43;14.60;96.70
44509;DHT22;30214;52.246;14.408;2023-05-07T14:39:13;14.60;97.20
44509;DHT22;30214;52.246;14.408;2023-05-07T14:41:42;14.80;95.20
44509;DHT22;30214;52.246;14.408;2023-05-07T14:44:11;14.90;96.70
44509;DHT22;30214;52.246;14.408;2023-05-07T14:46:38;15.00;94.80
44509;DHT22;30214;52.246;14.408;2023-05-07T14:49:06;15.00;95.90
44509;DHT22;30214;52.246;14.408;2023-05-07T14:51:43;14.70;95.30
44509;DHT22;30214;52.246;14.408;2023-05-07T14:54:11;14.50;97.80
44509;DHT22;30214;52.246;14.408;2023-05-07T14:56:38;14.30;96.90
44509;DHT22;30214;52.246;14.408;2023-05-07T14:59:07;14.20;98.00
44509;DHT22;30214;52.246;14.408;2023-05-07T15:01:39;14.10;98.90
44509;DHT22;30214;52.246;14.408;2023-05-07T15:04:11;14.30;99.40
44509;DHT22;30214;52.246;14.408;2023-05-07T15:06:39;14.40;98.70
44509;DHT22;30214;52.246;14.408;2023-05-07T15:09:07;14.50;96.90
44509;DHT22;30214;52.246;14.408;2023-05-07T15:11:35;14.50;96.70
44509;DHT22;30214;52.246;14.408;2023-05-07T15:14:04;14.50;96.30
44509;DHT22;30214;52.246;14.408;2023-05-07T15:16:32;14.50;96.00
44509;DHT22;30214;52.246;14.408;2023-05-07T15:19:00;14.30;95.90
44509;DHT22;30214;52.246;14.408;2023-05-07T15:21:27;13.90;96.90
44509;DHT22;30214;52.246;14.408;2023-05-07T15:23:54;13.80;96.80
44509;DHT22;30214;52.246;14.408;2023-05-07T15:26:21;13.60;97.60
44509;DHT22;30214;52.246;14.408;2023-05-07T15:28:48;13.50;98.20
44509;DHT22;30214;52.246;14.408;2023-05-07T15:31:15;13.60;98.90
44509;DHT22;30214;52.246;14.408;2023-05-07T15:33:46;13.50;99.30
44509;DHT22;30214;52.246;14.408;2023-05-07T15:36:13;13.50;99.70
44509;DHT22;30214;52.246;14.408;2023-05-07T15:38:40;13.50;99.80
44509;DHT22;30214;52.246;14.408;2023-05-07T15:41:08;13.50;99.80
44509;DHT22;30214;52.246;14.408;2023-05-07T15:43:44;13.50;99.90
44509;DHT22;30214;52.246;14.408;2023-05-07T15:46:17;13.50;99.80